Pagrindinis puslapis
METAR-TAF:

METAR-TAF

Oro uostai :

Visalia Municipal Airport

Visalia, Kalifornija, Jungtinės Amerikos Valstijos

platuma: 36-19N, ilguma: 119-24W, Aukštis: 89 m

Dabartinis oras

Ataskaita buvo paskelbta 17 minutes, ne 22:56 UTC
Vėjas 3 kt nuo kintamojo kryptimis
Temperatūra 16°C
Drėgmė 55%
Slėgis 1016 hPa
Matomumas: 12.9 km
Giedras dangus

METAR: KVIS 252256Z AUTO VRB03KT 8SM CLR 16/07 A3001 RMK AO2 SLP173 T01610072

Laikas: 15:13 (23:13 UTC)

Prognozė

Ataskaita buvo paskelbta 5 valandos ir 53 minutes, ne 17:20 UTC
Prognozė galioja nuo 25 metu 18 UTC su 26 metu 18 UTC
Vėjas kt iš Šiaurės
Matomumas: 6.4 km
Giedras dangus
rūkana
Laikinai
nuo 25 metu 22 UTC su 26 metu 02 UTC
Matomumas: 10 km
Nuo 26 metu 0800 UTC
Vėjas 2 kt nuo kintamojo kryptimis
Matomumas: 3.2 km
Giedras dangus
rūkana

TAF: KVIS 251720Z 2518/2618 00000KT 4SM BR SKC TEMPO 2522/2602 P6SM NSW FM260800 VRB02KT 2SM BR SKC

Orai ataskaitas ir orų prognozės (METAR, TAF).

turimą stotys yra geltonos ir raudonos taškus žemėlapyje.

Perkelti pele per norėdami pamatyti stoties vardą.

Tada spustelėkite, norėdami matyti oro stebėjimo ir prognozės.

Norėdami pakeisti žemėlapį: spustelėkite ant žalios mygtukų su juodo kryžiaus žemyn,; žalią mygtuką su brūkšneliu, jei norite nutolinti; arba žalių rodyklių gretimoms žemėlapius.


METAR-TAF: